createdAt,value
2023-02-21T00:00:37.009Z,25.08
2023-02-21T00:05:35.414Z,24.77
2023-02-21T00:10:34.554Z,24.20
2023-02-21T00:15:32.710Z,23.68
2023-02-21T00:20:32.834Z,23.40
2023-02-21T00:25:31.952Z,23.12
2023-02-21T00:30:31.375Z,22.82
2023-02-21T00:35:30.477Z,22.47
2023-02-21T00:40:29.580Z,22.07
2023-02-21T00:45:28.923Z,21.67
2023-02-21T00:50:30.015Z,20.99
2023-02-21T00:55:28.345Z,20.77
2023-02-21T01:00:27.646Z,20.47
2023-02-21T01:05:26.972Z,20.24
2023-02-21T01:10:25.289Z,19.87
2023-02-21T01:15:24.621Z,19.71
2023-02-21T01:20:24.939Z,19.73
2023-02-21T01:25:23.253Z,19.66
2023-02-21T01:30:23.460Z,19.48
2023-02-21T01:35:21.710Z,19.26
2023-02-21T01:40:21.843Z,19.06
2023-02-21T01:45:20.160Z,18.91
2023-02-21T01:50:20.304Z,18.69
2023-02-21T01:55:18.654Z,18.67
2023-02-21T02:00:17.760Z,18.52
2023-02-21T02:05:17.132Z,18.47
2023-02-21T02:10:17.246Z,18.36
2023-02-21T02:15:16.616Z,18.41
2023-02-21T02:20:15.742Z,18.33
2023-02-21T02:25:15.853Z,18.15
2023-02-21T02:30:14.221Z,17.99
2023-02-21T02:35:13.356Z,17.89
2023-02-21T02:40:11.696Z,17.78
2023-02-21T02:45:10.861Z,17.55
2023-02-21T02:50:09.976Z,17.71
2023-02-21T02:55:09.306Z,17.75
2023-02-21T03:00:10.455Z,17.48
2023-02-21T03:05:08.739Z,17.34
2023-02-21T03:10:08.056Z,17.30
2023-02-21T03:15:06.191Z,17.44
2023-02-21T03:20:04.400Z,17.23
2023-02-21T03:25:05.515Z,17.15
2023-02-21T03:30:04.886Z,17.12
2023-02-21T03:35:03.048Z,17.11
2023-02-21T03:40:02.373Z,17.11
2023-02-21T03:45:01.537Z,17.08
2023-02-21T03:50:00.746Z,16.83
2023-02-21T03:54:59.867Z,16.78
2023-02-21T03:59:59.209Z,16.73
2023-02-21T04:04:59.525Z,16.61
2023-02-21T04:09:56.852Z,16.53
2023-02-21T04:14:56.980Z,16.58
2023-02-21T04:19:56.167Z,16.73
2023-02-21T04:24:55.293Z,16.58
2023-02-21T04:29:54.419Z,16.39
2023-02-21T04:34:53.754Z,16.24
2023-02-21T04:39:53.094Z,16.20
2023-02-21T04:45:00.016Z,16.12
2023-02-21T04:49:51.422Z,15.68
2023-02-21T04:54:50.794Z,15.84
2023-02-21T04:59:49.921Z,16.00
2023-02-21T05:04:49.030Z,16.31
2023-02-21T05:09:49.361Z,16.48
2023-02-21T05:14:49.694Z,16.63
2023-02-21T05:19:46.007Z,16.71
2023-02-21T05:24:46.184Z,16.64
2023-02-21T05:29:46.330Z,16.64
2023-02-21T05:34:45.527Z,16.50
2023-02-21T05:39:44.718Z,16.43
2023-02-21T05:44:42.848Z,16.57
2023-02-21T05:49:42.158Z,16.46
2023-02-21T05:54:41.340Z,16.45
2023-02-21T05:59:40.486Z,16.39
2023-02-21T06:04:39.660Z,16.38
2023-02-21T06:09:39.789Z,16.45
2023-02-21T06:14:39.964Z,16.34
2023-02-21T06:19:37.203Z,16.33
2023-02-21T06:24:36.342Z,16.20
2023-02-21T06:29:35.496Z,16.23
2023-02-21T06:34:34.867Z,15.89
2023-02-21T06:39:34.982Z,15.71
2023-02-21T06:44:34.336Z,15.62
2023-02-21T06:49:31.538Z,15.67
2023-02-21T06:54:31.702Z,15.93
2023-02-21T06:59:30.857Z,16.02
2023-02-21T07:04:31.020Z,16.08
2023-02-21T07:09:29.153Z,16.12
2023-02-21T07:14:27.281Z,16.09
2023-02-21T07:19:27.644Z,15.94
2023-02-21T07:24:26.867Z,16.08
2023-02-21T07:29:28.302Z,16.08
2023-02-21T07:34:26.454Z,15.96
2023-02-21T07:39:25.578Z,16.05
2023-02-21T07:44:23.936Z,16.02
2023-02-21T07:49:23.027Z,16.08
2023-02-21T07:54:22.308Z,15.89
2023-02-21T07:59:22.608Z,15.87
2023-02-21T08:04:20.920Z,15.76
2023-02-21T08:09:20.032Z,15.82
2023-02-21T08:14:19.307Z,15.90
2023-02-21T08:19:18.670Z,16.21
2023-02-21T08:24:17.791Z,16.46
2023-02-21T08:29:17.105Z,16.97
2023-02-21T08:34:16.430Z,17.08
2023-02-21T08:39:16.743Z,16.83
2023-02-21T08:44:14.894Z,17.23
2023-02-21T08:49:16.256Z,17.36
2023-02-21T08:54:12.410Z,17.03
2023-02-21T08:59:13.528Z,16.57
2023-02-21T09:04:12.700Z,17.14
2023-02-21T09:09:10.994Z,17.37
2023-02-21T09:14:11.340Z,17.08
2023-02-21T09:19:10.638Z,17.04
2023-02-21T09:24:07.985Z,16.97
2023-02-21T09:29:09.132Z,16.98
2023-02-21T09:34:07.409Z,17.08
2023-02-21T09:39:08.732Z,17.37
2023-02-21T09:44:06.051Z,17.49
2023-02-21T09:49:06.370Z,17.54
2023-02-21T09:54:05.702Z,17.23
2023-02-21T09:59:03.801Z,17.37
2023-02-21T10:04:03.141Z,17.15
2023-02-21T10:09:02.462Z,17.41
2023-02-21T10:14:01.806Z,17.55
2023-02-21T10:19:02.124Z,17.66
2023-02-21T10:24:00.278Z,17.52
2023-02-21T10:29:01.445Z,17.44
2023-02-21T10:33:59.644Z,17.49
2023-02-21T10:38:57.768Z,17.68
2023-02-21T10:43:56.899Z,17.86
2023-02-21T10:48:57.233Z,17.77
2023-02-21T10:53:55.365Z,18.02
2023-02-21T10:58:55.516Z,18.10
2023-02-21T11:03:53.844Z,18.20
2023-02-21T11:08:53.980Z,17.96
2023-02-21T11:13:53.149Z,18.08
2023-02-21T11:18:52.311Z,18.05
2023-02-21T11:23:52.474Z,18.18
2023-02-21T11:28:50.779Z,18.03
2023-02-21T11:33:49.106Z,17.95
2023-02-21T11:38:49.285Z,17.97
2023-02-21T11:43:48.337Z,17.84
2023-02-21T11:48:46.633Z,17.77
2023-02-21T11:53:46.952Z,17.90
2023-02-21T11:58:45.265Z,18.23
2023-02-21T12:03:44.594Z,18.14
2023-02-21T12:08:43.922Z,18.21
2023-02-21T12:13:43.139Z,18.76
2023-02-21T12:18:42.258Z,18.90
2023-02-21T12:23:42.849Z,18.98
2023-02-21T12:28:40.764Z,18.95
2023-02-21T12:33:42.112Z,18.95
2023-02-21T12:38:41.423Z,18.99
2023-02-21T12:43:38.771Z,18.94
2023-02-21T12:48:37.907Z,18.91
2023-02-21T12:53:37.085Z,18.84
2023-02-21T12:58:38.199Z,18.95
2023-02-21T13:03:35.365Z,18.85
2023-02-21T13:08:33.482Z,18.81
2023-02-21T13:13:35.646Z,18.75
2023-02-21T13:18:34.766Z,18.75
2023-02-21T13:23:32.942Z,18.69
2023-02-21T13:28:31.079Z,18.75
2023-02-21T13:33:31.295Z,18.81
2023-02-21T13:38:30.457Z,18.78
2023-02-21T13:43:31.817Z,18.66
2023-02-21T13:48:27.976Z,18.62
2023-02-21T13:53:28.080Z,18.67
2023-02-21T13:58:27.381Z,18.54
2023-02-21T14:03:25.701Z,18.60
2023-02-21T14:08:25.035Z,18.62
2023-02-21T14:13:25.355Z,18.66
2023-02-21T14:18:23.665Z,18.60
2023-02-21T14:23:25.014Z,18.51
2023-02-21T14:28:22.307Z,18.65
2023-02-21T14:33:21.673Z,18.69
2023-02-21T14:38:20.829Z,18.80
2023-02-21T14:43:19.953Z,18.84
2023-02-21T14:48:19.118Z,18.87
2023-02-21T14:53:19.276Z,18.80
2023-02-21T14:58:18.424Z,18.81
2023-02-21T15:03:19.671Z,18.72
2023-02-21T15:08:15.725Z,18.70
2023-02-21T15:13:14.880Z,18.57
2023-02-21T15:18:15.006Z,18.47
2023-02-21T15:23:13.349Z,18.50
2023-02-21T15:28:13.460Z,18.55
2023-02-21T15:33:12.913Z,18.41
2023-02-21T15:38:12.101Z,18.32
2023-02-21T15:43:10.233Z,18.25
2023-02-21T15:48:11.387Z,18.21
2023-02-21T15:53:08.494Z,18.07
2023-02-21T15:58:08.991Z,17.96
2023-02-21T16:03:07.317Z,18.02
2023-02-21T16:08:07.328Z,17.97
2023-02-21T16:13:05.498Z,17.96
2023-02-21T16:18:04.660Z,17.82
2023-02-21T16:23:08.235Z,17.71
2023-02-21T16:28:03.360Z,17.71
2023-02-21T16:33:03.344Z,17.68
2023-02-21T16:38:00.733Z,17.63
2023-02-21T16:43:00.917Z,17.58
2023-02-21T16:48:00.027Z,17.55
2023-02-21T16:52:59.165Z,17.56
2023-02-21T16:57:57.866Z,17.59
2023-02-21T17:02:57.793Z,17.71
2023-02-21T17:07:56.935Z,17.71
2023-02-21T17:12:57.292Z,17.66
2023-02-21T17:17:56.326Z,17.56
2023-02-21T17:22:53.841Z,17.37
2023-02-21T17:27:55.453Z,16.85
2023-02-21T17:32:54.584Z,18.18
2023-02-21T17:37:51.771Z,20.13
2023-02-21T17:42:53.074Z,21.14
2023-02-21T17:47:51.116Z,21.77
2023-02-21T17:52:50.253Z,22.07
2023-02-21T17:57:49.776Z,22.30
2023-02-21T18:02:50.402Z,22.45
2023-02-21T18:07:48.145Z,22.95
2023-02-21T18:12:50.785Z,23.22
2023-02-21T18:17:46.434Z,23.19
2023-02-21T18:22:45.768Z,23.28
2023-02-21T18:27:45.748Z,23.39
2023-02-21T18:32:44.001Z,23.38
2023-02-21T18:37:43.833Z,23.54
2023-02-21T18:42:45.542Z,23.72
2023-02-21T18:47:42.873Z,23.35
2023-02-21T18:52:42.848Z,23.22
2023-02-21T18:57:41.822Z,23.50
2023-02-21T19:02:40.509Z,23.20
2023-02-21T19:07:40.421Z,22.61
2023-02-21T19:12:37.918Z,22.55
2023-02-21T19:17:38.318Z,22.36
2023-02-21T19:22:36.482Z,22.05
2023-02-21T19:27:36.658Z,22.30
2023-02-21T19:32:39.705Z,21.82
2023-02-21T19:37:35.069Z,21.13
2023-02-21T19:42:32.876Z,21.01
2023-02-21T19:47:32.388Z,21.92
2023-02-21T19:52:31.197Z,21.91
2023-02-21T19:57:31.361Z,21.99
2023-02-21T20:02:31.460Z,21.91
2023-02-21T20:07:28.916Z,21.27
2023-02-21T20:12:29.480Z,21.14
2023-02-21T20:17:28.662Z,21.19
2023-02-21T20:22:26.506Z,21.58
2023-02-21T20:27:25.689Z,20.95
2023-02-21T20:32:24.389Z,21.47
2023-02-21T20:37:26.438Z,21.72
2023-02-21T20:42:23.608Z,21.99
2023-02-21T20:47:22.878Z,21.34
2023-02-21T20:52:22.808Z,20.26
2023-02-21T20:57:23.242Z,20.48
2023-02-21T21:02:20.107Z,21.07
2023-02-21T21:07:23.297Z,20.31
2023-02-21T21:12:22.969Z,21.13
2023-02-21T21:17:17.864Z,20.73
2023-02-21T21:22:17.213Z,20.79
2023-02-21T21:27:17.375Z,20.72
2023-02-21T21:32:15.631Z,20.55
2023-02-21T21:37:14.751Z,20.79
2023-02-21T21:42:16.135Z,21.59
2023-02-21T21:47:12.068Z,21.34
2023-02-21T21:52:12.283Z,21.14
2023-02-21T21:57:12.448Z,21.54
2023-02-21T22:02:11.841Z,21.22
2023-02-21T22:07:09.984Z,22.28
2023-02-21T22:12:09.146Z,22.79
2023-02-21T22:17:09.529Z,22.42
2023-02-21T22:22:08.685Z,23.07
2023-02-21T22:27:07.848Z,22.79
2023-02-21T22:32:06.174Z,22.33
2023-02-21T22:37:05.479Z,22.09
2023-02-21T22:42:05.796Z,22.88
2023-02-21T22:47:04.103Z,22.92
2023-02-21T22:52:03.405Z,22.02
2023-02-21T22:57:02.714Z,22.06
2023-02-21T23:02:03.974Z,23.53
2023-02-21T23:07:02.227Z,22.79
2023-02-21T23:12:01.479Z,23.57
2023-02-21T23:16:59.765Z,23.68
2023-02-21T23:21:59.050Z,24.39
2023-02-21T23:26:58.432Z,22.75
2023-02-21T23:31:58.588Z,22.03
2023-02-21T23:36:56.722Z,24.02
2023-02-21T23:41:56.006Z,24.22
2023-02-21T23:46:56.368Z,25.23
2023-02-21T23:51:55.588Z,24.78
2023-02-21T23:56:53.762Z,24.39
